Time;durP1;ratioP1;P1;durP2;ratioP2;P2;SDS_P1;SDS_P2;PMS_P1;PMS_P2;Temp;Humidity;BMP_temperature;BMP_pressure;BME280_temperature;BME280_humidity;BME280_pressure;Samples;Min_cycle;Max_cycle;Signal;HPM_P1;HPM_P2
2023/02/07 00:01:33;;;;;;;9.40;3.60;;;;;;;-12.74;72.71;97384.25;106616;1275;24382;-63
2023/02/07 00:04:02;;;;;;;8.60;4.20;;;;;;;-12.74;73.25;97387.98;106598;1275;22756;-63
2023/02/07 00:06:33;;;;;;;8.10;3.60;;;;;;;-12.76;73.65;97388.08;106672;1275;22655;-63
2023/02/07 00:09:05;;;;;;;7.30;4.20;;;;;;;-12.80;72.74;97392.77;106672;1275;25552;-63
2023/02/07 00:11:35;;;;;;;7.30;4.20;;;;;;;-12.77;73.20;97395.64;106717;1275;24262;-64
2023/02/07 00:14:03;;;;;;;4.00;2.40;;;;;;;-12.67;73.08;97401.33;106655;1253;24434;-64
2023/02/07 00:16:32;;;;;;;9.20;3.50;;;;;;;-12.73;72.57;97398.42;106553;1275;22559;-64
2023/02/07 00:19:01;;;;;;;9.10;3.90;;;;;;;-12.71;72.48;97397.41;106643;1275;22625;-63
2023/02/07 00:21:29;;;;;;;7.70;3.60;;;;;;;-12.72;72.47;97396.84;106881;1275;25548;-63
2023/02/07 00:23:57;;;;;;;9.20;4.30;;;;;;;-12.77;72.67;97398.19;106828;1275;24375;-63
2023/02/07 00:26:27;;;;;;;7.30;4.30;;;;;;;-12.77;73.66;97401.08;106604;1275;26909;-63
2023/02/07 00:28:56;;;;;;;14.40;6.00;;;;;;;-12.74;73.76;97403.90;106628;1275;25335;-63
2023/02/07 00:31:27;;;;;;;13.70;6.90;;;;;;;-12.69;73.98;97404.39;106632;1275;23102;-63
2023/02/07 00:34:00;;;;;;;9.40;4.60;;;;;;;-12.68;73.17;97400.96;106953;1275;24249;-63
2023/02/07 00:36:30;;;;;;;7.80;4.40;;;;;;;-12.68;72.83;97399.77;106955;1275;23912;-63
2023/02/07 00:39:01;;;;;;;8.10;4.40;;;;;;;-12.73;72.47;97397.88;106894;1275;25795;-63
2023/02/07 00:41:30;;;;;;;13.40;6.00;;;;;;;-12.75;72.36;97400.70;106589;1275;24172;-63
2023/02/07 00:44:00;;;;;;;9.30;4.50;;;;;;;-12.82;72.24;97396.67;106589;1275;24258;-63
2023/02/07 00:46:29;;;;;;;9.00;4.30;;;;;;;-12.79;72.49;97396.58;106835;1275;24359;-63
2023/02/07 00:48:58;;;;;;;7.50;3.50;;;;;;;-12.75;72.81;97393.98;106975;1275;22668;-63
2023/02/07 00:51:26;;;;;;;7.10;4.10;;;;;;;-12.70;72.70;97393.44;106652;1275;22743;-63
2023/02/07 00:53:56;;;;;;;7.00;3.70;;;;;;;-12.58;73.07;97401.98;106611;1275;25436;-63
2023/02/07 00:56:26;;;;;;;5.40;3.00;;;;;;;-12.55;72.76;97396.42;106685;1275;22692;-63
2023/02/07 00:58:55;;;;;;;9.10;3.90;;;;;;;-12.58;72.53;97387.27;106889;1275;25503;-63
2023/02/07 01:01:26;;;;;;;7.00;3.80;;;;;;;-12.58;73.02;97386.14;106661;1275;24561;-63
2023/02/07 01:03:56;;;;;;;15.50;7.10;;;;;;;-12.47;73.43;97388.35;106592;1275;22488;-64
2023/02/07 01:06:26;;;;;;;23.40;9.90;;;;;;;-12.35;73.54;97381.19;106615;1275;25560;-63
2023/02/07 01:08:57;;;;;;;46.90;17.00;;;;;;;-12.23;72.97;97380.23;106673;1275;22839;-64
2023/02/07 01:11:28;;;;;;;107.90;35.00;;;;;;;-12.13;72.69;97377.41;106618;1274;22552;-63
2023/02/07 01:13:59;;;;;;;8.20;4.00;;;;;;;-12.05;72.63;97370.02;106623;1275;22697;-63
2023/02/07 01:16:33;;;;;;;8.20;4.40;;;;;;;-12.02;72.27;97368.33;106633;1275;22712;-63
2023/02/07 01:19:06;;;;;;;6.80;3.60;;;;;;;-12.00;72.10;97364.94;106689;1275;24688;-63
2023/02/07 01:21:35;;;;;;;7.00;3.80;;;;;;;-12.05;71.63;97358.54;106599;1275;25409;-63
2023/02/07 01:24:06;;;;;;;8.40;4.00;;;;;;;-12.01;72.46;97352.06;106655;1275;24205;-63
2023/02/07 01:26:36;;;;;;;7.20;3.70;;;;;;;-11.94;72.60;97345.76;106636;1265;22545;-63
2023/02/07 01:29:05;;;;;;;30.50;10.80;;;;;;;-11.99;72.69;97345.34;106658;1275;22612;-63
2023/02/07 01:31:33;;;;;;;32.00;13.10;;;;;;;-11.99;72.68;97353.85;106664;1275;24230;-63
2023/02/07 01:34:01;;;;;;;21.20;10.50;;;;;;;-11.93;72.38;97358.92;106571;1275;24445;-63
2023/02/07 01:36:32;;;;;;;46.80;19.40;;;;;;;-11.83;72.27;97364.44;106599;1275;22670;-63
2023/02/07 01:39:02;;;;;;;12.10;4.80;;;;;;;-11.77;72.16;97364.84;106626;1275;22746;-64
2023/02/07 01:41:34;;;;;;;12.80;5.70;;;;;;;-11.80;71.93;97362.09;106569;1275;26513;-63
2023/02/07 01:44:07;;;;;;;14.40;7.60;;;;;;;-11.81;72.66;97368.89;106636;1275;24025;-63
2023/02/07 01:46:36;;;;;;;21.10;10.20;;;;;;;-11.91;72.70;97366.73;106631;1275;22769;-63
2023/02/07 01:49:08;;;;;;;24.70;12.00;;;;;;;-12.06;73.00;97368.04;106554;1275;22569;-63
2023/02/07 01:51:43;;;;;;;34.70;15.40;;;;;;;-12.19;73.36;97371.08;106604;1263;24274;-63
2023/02/07 01:54:12;;;;;;;35.60;13.20;;;;;;;-12.18;73.80;97370.48;106617;1264;24238;-63
2023/02/07 01:56:45;;;;;;;33.10;13.70;;;;;;;-12.19;74.27;97368.88;106560;1275;24624;-63
2023/02/07 01:59:15;;;;;;;33.20;15.60;;;;;;;-12.15;74.77;97365.80;106615;1275;24113;-63
2023/02/07 02:01:45;;;;;;;53.70;22.60;;;;;;;-11.94;75.01;97364.91;106669;1275;22654;-64
2023/02/07 02:04:13;;;;;;;43.60;17.30;;;;;;;-11.72;74.56;97356.79;106619;1275;24343;-63
2023/02/07 02:06:42;;;;;;;28.70;13.20;;;;;;;-11.55;73.74;97362.10;106588;1275;25468;-63
2023/02/07 02:09:15;;;;;;;24.10;10.50;;;;;;;-11.51;73.10;97350.09;106650;1275;24262;-64
2023/02/07 02:12:01;;;;;;;21.80;10.70;;;;;;;-11.46;73.01;97348.08;106642;1275;22811;-63
2023/02/07 02:14:29;;;;;;;21.30;9.60;;;;;;;-11.32;73.00;97346.06;106625;1275;24561;-63
2023/02/07 02:17:08;;;;;;;29.30;13.70;;;;;;;-11.33;72.48;97346.20;106552;1275;24660;-63
2023/02/07 02:19:58;;;;;;;30.00;15.10;;;;;;;-11.47;72.74;97343.07;106634;1275;24254;-63
2023/02/07 02:23:04;;;;;;;29.90;13.90;;;;;;;-11.52;73.41;97349.13;106603;1275;22606;-63
2023/02/07 02:26:01;;;;;;;21.80;10.30;;;;;;;-11.60;73.50;97354.91;106774;1275;22909;-63
2023/02/07 02:29:08;;;;;;;6.30;3.40;;;;;;;-11.60;73.56;97358.33;106776;1254;23047;-63
2023/02/07 02:31:56;;;;;;;23.10;10.50;;;;;;;-11.50;73.67;97360.23;106612;1275;22816;-63
2023/02/07 02:34:30;;;;;;;19.80;10.10;;;;;;;-11.58;73.46;97361.73;106563;1275;25566;-63
2023/02/07 02:37:16;;;;;;;21.70;10.20;;;;;;;-11.67;73.36;97363.71;106583;1271;25525;-64
2023/02/07 02:40:00;;;;;;;24.80;9.40;;;;;;;-11.77;74.49;97357.77;106559;1275;22561;-63
2023/02/07 02:42:41;;;;;;;8.50;3.60;;;;;;;-11.76;74.56;97357.52;106605;1274;25273;-63
2023/02/07 02:45:22;;;;;;;27.40;11.70;;;;;;;-11.65;75.14;97351.37;106610;1275;22613;-63
2023/02/07 02:47:52;;;;;;;32.00;13.00;;;;;;;-11.47;74.90;97347.77;106607;1275;22615;-63
2023/02/07 02:50:25;;;;;;;23.70;11.60;;;;;;;-11.28;74.54;97340.17;106600;1275;22630;-63
2023/02/07 02:52:54;;;;;;;30.90;14.10;;;;;;;-11.17;73.97;97335.05;106590;1275;22528;-63
2023/02/07 02:55:40;;;;;;;23.00;11.30;;;;;;;-11.08;73.61;97335.06;106604;1275;25676;-63
2023/02/07 02:58:24;;;;;;;19.20;9.20;;;;;;;-11.01;73.90;97338.70;106632;1275;23983;-63
2023/02/07 03:00:55;;;;;;;15.90;7.70;;;;;;;-10.87;73.83;97336.09;106594;1265;24376;-63
2023/02/07 03:03:53;;;;;;;15.90;7.90;;;;;;;-10.80;73.61;97334.36;106549;1275;24292;-63
2023/02/07 03:06:43;;;;;;;13.10;7.00;;;;;;;-10.78;73.00;97337.40;106643;1275;24381;-63
2023/02/07 03:09:36;;;;;;;7.70;3.40;;;;;;;-10.83;73.03;97337.34;106596;1275;24237;-63
2023/02/07 03:12:29;;;;;;;8.00;3.30;;;;;;;-10.85;72.85;97338.67;106565;1275;24334;-63
2023/02/07 03:15:11;;;;;;;19.30;9.70;;;;;;;-10.93;73.41;97332.98;106668;1275;24270;-63
2023/02/07 03:17:55;;;;;;;29.70;13.60;;;;;;;-11.13;73.08;97336.78;106634;1275;24210;-63
2023/02/07 03:20:31;;;;;;;14.90;7.30;;;;;;;-11.21;73.00;97334.08;106584;1275;25336;-63
2023/02/07 03:23:03;;;;;;;22.80;11.20;;;;;;;-11.21;74.53;97339.48;106619;1275;22617;-63
2023/02/07 03:25:32;;;;;;;28.40;12.70;;;;;;;-11.07;74.55;97341.08;106597;1275;22775;-64
2023/02/07 03:28:03;;;;;;;25.50;11.80;;;;;;;-10.95;74.12;97343.70;106620;1275;22628;-63
2023/02/07 03:30:35;;;;;;;25.90;12.20;;;;;;;-10.96;74.12;97340.61;106583;1275;26830;-63
2023/02/07 03:33:08;;;;;;;27.30;12.30;;;;;;;-10.98;74.23;97342.58;106588;1275;25452;-63
2023/02/07 03:35:43;;;;;;;21.50;11.00;;;;;;;-10.85;74.20;97347.22;106642;1275;22695;-63
2023/02/07 03:38:12;;;;;;;21.70;10.20;;;;;;;-10.73;73.93;97344.70;106639;1275;22740;-63
2023/02/07 03:40:47;;;;;;;23.40;12.40;;;;;;;-10.68;73.55;97351.77;106580;1275;25536;-63
2023/02/07 03:43:19;;;;;;;28.30;13.90;;;;;;;-10.65;73.33;97356.80;106583;1269;23035;-63
2023/02/07 03:45:47;;;;;;;11.80;6.50;;;;;;;-10.67;73.04;97359.81;106645;1275;22524;-63
2023/02/07 03:48:16;;;;;;;20.60;9.30;;;;;;;-10.69;72.97;97352.17;106602;1275;23148;-63
2023/02/07 03:50:46;;;;;;;63.80;25.60;;;;;;;-10.92;73.43;97332.45;106580;1275;25706;-63
2023/02/07 03:53:14;;;;;;;113.20;39.20;;;;;;;-11.11;74.25;97311.84;106603;1275;25561;-63
2023/02/07 03:55:42;;;;;;;114.80;42.60;;;;;;;-11.10;75.21;97302.27;106532;1275;25580;-63
2023/02/07 03:58:11;;;;;;;52.40;24.60;;;;;;;-11.04;74.83;97308.71;106623;1275;22713;-63
2023/02/07 04:00:39;;;;;;;31.30;14.50;;;;;;;-11.00;74.35;97313.89;106610;1269;26715;-63
2023/02/07 04:03:08;;;;;;;27.90;13.50;;;;;;;-10.98;73.96;97328.30;106643;1275;25476;-63
2023/02/07 04:05:36;;;;;;;30.30;13.50;;;;;;;-10.95;74.06;97333.05;106627;1275;22780;-63
2023/02/07 04:08:05;;;;;;;24.90;12.90;;;;;;;-10.90;74.16;97329.59;106614;1275;22840;-63
2023/02/07 04:10:33;;;;;;;27.80;11.70;;;;;;;-10.86;74.06;97330.91;106532;1275;25436;-63
2023/02/07 04:13:01;;;;;;;26.80;12.90;;;;;;;-10.78;73.88;97322.80;106596;1275;22705;-63
2023/02/07 04:15:30;;;;;;;28.50;12.70;;;;;;;-10.72;73.98;97324.41;106545;1275;22679;-63
2023/02/07 04:17:58;;;;;;;26.60;11.10;;;;;;;-10.74;73.99;97320.86;106627;1257;24177;-63
2023/02/07 04:20:26;;;;;;;36.90;17.60;;;;;;;-10.72;75.57;97316.56;106617;1275;24502;-63
2023/02/07 04:22:54;;;;;;;27.20;13.40;;;;;;;-10.72;75.68;97320.13;106587;1275;22599;-63
2023/02/07 04:25:23;;;;;;;31.70;13.40;;;;;;;-10.71;75.89;97323.30;106572;1275;22575;-63
2023/02/07 04:27:51;;;;;;;48.60;23.20;;;;;;;-10.65;76.47;97320.30;106603;1275;22585;-63
2023/02/07 04:30:19;;;;;;;26.70;13.50;;;;;;;-10.48;76.00;97318.56;106640;1275;24239;-63
2023/02/07 04:32:47;;;;;;;33.70;14.20;;;;;;;-10.36;75.38;97317.90;106585;1275;22787;-63
2023/02/07 04:35:15;;;;;;;14.40;7.70;;;;;;;-10.31;74.90;97312.04;106574;1275;22746;-63
2023/02/07 04:37:44;;;;;;;13.60;5.80;;;;;;;-10.15;75.42;97317.01;106637;1275;22656;-63
2023/02/07 04:40:12;;;;;;;45.00;22.90;;;;;;;-9.98;75.19;97315.69;106444;1275;25514;-64
2023/02/07 04:42:40;;;;;;;31.60;16.00;;;;;;;-9.92;74.95;97314.87;106647;1275;22722;-63
2023/02/07 04:45:08;;;;;;;25.50;12.60;;;;;;;-9.87;74.61;97318.05;106596;1275;24483;-63
2023/02/07 04:47:37;;;;;;;23.70;12.10;;;;;;;-9.84;74.29;97320.37;106679;1275;22875;-63
2023/02/07 04:50:05;;;;;;;23.80;12.80;;;;;;;-9.74;74.10;97318.98;106561;1275;22590;-63
2023/02/07 04:52:33;;;;;;;23.40;12.90;;;;;;;-9.70;73.50;97320.20;106562;1275;22697;-63
2023/02/07 04:55:02;;;;;;;17.40;9.80;;;;;;;-9.82;72.74;97318.80;106597;1274;22640;-63
2023/02/07 04:57:30;;;;;;;9.30;3.80;;;;;;;-9.93;73.13;97320.92;106687;1275;24245;-63
2023/02/07 04:59:59;;;;;;;28.50;12.20;;;;;;;-9.99;73.62;97318.20;106572;1275;22640;-63
2023/02/07 05:02:27;;;;;;;28.90;13.80;;;;;;;-10.09;74.22;97314.96;106555;1275;26189;-63
2023/02/07 05:04:55;;;;;;;46.40;22.50;;;;;;;-10.21;74.54;97313.92;106613;1258;25486;-63
2023/02/07 05:07:23;;;;;;;186.20;83.80;;;;;;;-10.13;74.70;97320.05;106147;1275;630211;-63
2023/02/07 05:09:52;;;;;;;98.40;48.10;;;;;;;-10.06;74.65;97317.77;106606;1275;22571;-63
2023/02/07 05:12:20;;;;;;;126.70;55.30;;;;;;;-10.05;74.47;97317.54;106653;1275;22701;-63
2023/02/07 05:14:48;;;;;;;114.70;49.60;;;;;;;-10.09;74.09;97314.98;106586;1275;24600;-63
2023/02/07 05:17:16;;;;;;;107.70;48.20;;;;;;;-10.09;74.80;97315.27;106558;1275;22664;-63
2023/02/07 05:19:45;;;;;;;67.40;30.20;;;;;;;-10.07;75.06;97313.27;106572;1275;22536;-63
2023/02/07 05:22:13;;;;;;;63.40;26.60;;;;;;;-9.99;74.91;97318.52;106610;1275;22618;-64
2023/02/07 05:24:42;;;;;;;59.00;27.30;;;;;;;-9.96;74.40;97315.23;106575;1275;25606;-64
2023/02/07 05:27:11;;;;;;;45.20;21.90;;;;;;;-10.05;74.05;97311.73;106593;1275;22762;-63
2023/02/07 05:29:39;;;;;;;45.40;19.50;;;;;;;-10.15;74.34;97315.05;106610;1275;22662;-64
2023/02/07 05:34:59;;;;;;;56.40;24.50;;;;;;;-10.04;74.84;97324.41;106612;1254;24240;-64
2023/02/07 05:37:27;;;;;;;55.20;23.40;;;;;;;-9.97;74.48;97331.45;106627;1275;23215;-64
2023/02/07 05:39:55;;;;;;;55.30;24.00;;;;;;;-10.03;73.77;97333.52;106567;1275;25676;-64
2023/02/07 05:42:23;;;;;;;19.30;8.20;;;;;;;-10.17;73.92;97332.31;106517;1275;22681;-63
2023/02/07 05:44:52;;;;;;;15.50;6.70;;;;;;;-10.21;73.86;97333.46;106582;1275;25588;-63
2023/02/07 05:47:21;;;;;;;21.30;10.90;;;;;;;-10.28;74.41;97338.28;106605;1275;24248;-64
2023/02/07 05:49:49;;;;;;;45.20;21.00;;;;;;;-10.50;75.28;97336.90;106657;1275;22619;-63
2023/02/07 05:52:17;;;;;;;42.70;19.10;;;;;;;-10.53;75.69;97336.95;106595;1275;25514;-64
2023/02/07 05:54:45;;;;;;;42.80;19.60;;;;;;;-10.60;75.64;97335.17;106575;1275;22851;-64
2023/02/07 05:57:13;;;;;;;71.20;33.60;;;;;;;-10.74;76.25;97337.48;106597;1275;25506;-66
2023/02/07 05:59:41;;;;;;;87.60;41.20;;;;;;;-10.78;76.59;97340.88;106568;1275;25698;-64
2023/02/07 06:02:10;;;;;;;58.30;29.20;;;;;;;-10.65;76.90;97337.61;106624;1254;24226;-65
2023/02/07 06:04:38;;;;;;;27.60;15.60;;;;;;;-10.50;76.63;97335.76;106546;1275;22614;-80
2023/02/07 06:07:06;;;;;;;23.60;12.00;;;;;;;-10.41;76.30;97335.08;106414;1253;22951;-65
2023/02/07 06:09:34;;;;;;;10.30;6.50;;;;;;;-10.35;76.19;97334.15;106491;1275;25632;-68
2023/02/07 06:12:03;;;;;;;8.30;4.20;;;;;;;-10.39;75.63;97330.73;106354;1275;22786;-65
2023/02/07 06:14:32;;;;;;;5.10;3.30;;;;;;;-10.30;76.07;97335.26;106578;1275;22589;-65
2023/02/07 06:17:00;;;;;;;5.30;3.10;;;;;;;-10.20;75.76;97336.21;106486;1275;22815;-64
2023/02/07 06:19:28;;;;;;;5.10;2.60;;;;;;;-10.09;75.74;97338.92;106605;1275;22553;-62
2023/02/07 06:21:58;;;;;;;4.40;3.00;;;;;;;-9.96;75.79;97338.70;106485;1275;25568;-66
2023/02/07 06:24:26;;;;;;;6.90;3.00;;;;;;;-9.95;75.03;97336.08;106671;1259;22939;-68
2023/02/07 06:26:54;;;;;;;6.40;2.70;;;;;;;-9.98;74.52;97338.16;106447;1275;25674;-67
2023/02/07 06:29:22;;;;;;;5.20;3.30;;;;;;;-10.05;74.50;97342.20;106782;1275;25454;-66
2023/02/07 06:31:50;;;;;;;11.80;6.20;;;;;;;-10.12;74.26;97347.53;106551;1275;22757;-65
2023/02/07 06:34:19;;;;;;;18.90;8.80;;;;;;;-10.28;74.43;97348.71;106553;1275;23750;-70
2023/02/07 06:36:47;;;;;;;24.20;11.90;;;;;;;-10.30;74.61;97347.55;106728;1275;22839;-69
2023/02/07 06:39:15;;;;;;;21.80;10.30;;;;;;;-10.33;74.40;97344.66;106557;1275;22661;-66
2023/02/07 06:41:44;;;;;;;54.30;26.10;;;;;;;-10.36;75.03;97340.02;106620;1275;22616;-72
2023/02/07 06:44:12;;;;;;;91.10;34.10;;;;;;;-10.32;75.07;97344.95;106760;1275;22626;-67
2023/02/07 06:46:40;;;;;;;44.40;17.20;;;;;;;-10.27;75.56;97347.48;106547;1275;25493;-66
2023/02/07 06:49:10;;;;;;;84.40;39.60;;;;;;;-10.13;75.91;97363.08;106417;1275;22671;-69
2023/02/07 06:51:38;;;;;;;24.70;11.10;;;;;;;-9.94;75.22;97366.41;106573;1275;22665;-65
2023/02/07 06:54:08;;;;;;;8.70;4.70;;;;;;;-9.85;75.22;97364.34;106910;1275;22633;-70
2023/02/07 06:56:36;;;;;;;6.70;3.10;;;;;;;-9.69;75.23;97359.13;106635;1275;22753;-66
2023/02/07 06:59:05;;;;;;;10.60;4.70;;;;;;;-9.48;75.10;97356.97;106662;1275;22557;-64
2023/02/07 07:01:33;;;;;;;22.70;12.40;;;;;;;-9.32;74.89;97351.40;106374;1275;22941;-64
2023/02/07 07:04:01;;;;;;;88.80;35.90;;;;;;;-9.06;75.54;97349.80;106529;1275;22689;-66
2023/02/07 07:06:30;;;;;;;70.70;31.80;;;;;;;-8.70;75.75;97343.60;106513;1275;25575;-63
2023/02/07 07:08:58;;;;;;;52.20;22.80;;;;;;;-8.32;75.73;97339.54;106611;1275;25601;-63
2023/02/07 07:11:26;;;;;;;27.80;12.40;;;;;;;-8.00;75.37;97343.96;106498;1275;22735;-66
2023/02/07 07:13:54;;;;;;;20.10;9.70;;;;;;;-7.76;75.26;97341.80;106419;1275;22621;-64
2023/02/07 07:16:22;;;;;;;20.60;9.40;;;;;;;-7.56;74.87;97342.00;106399;1275;22610;-63
2023/02/07 07:18:51;;;;;;;19.20;9.00;;;;;;;-7.40;74.55;97346.65;106428;1275;22731;-63
2023/02/07 07:21:19;;;;;;;18.90;8.90;;;;;;;-7.29;74.19;97351.60;106609;1274;26582;-62
2023/02/07 07:23:47;;;;;;;14.70;8.40;;;;;;;-7.18;73.99;97349.90;106580;1275;22602;-62
2023/02/07 07:26:15;;;;;;;13.90;7.10;;;;;;;-7.11;73.74;97350.45;106559;1275;25588;-62
2023/02/07 07:28:44;;;;;;;17.80;9.00;;;;;;;-7.09;73.51;97347.49;107650;1275;22663;-62
2023/02/07 07:31:12;;;;;;;21.90;10.90;;;;;;;-6.99;73.57;97345.55;106958;1275;22612;-65
2023/02/07 07:33:41;;;;;;;30.90;17.30;;;;;;;-6.95;73.14;97343.30;107946;1275;25496;-63
2023/02/07 07:36:09;;;;;;;22.70;10.80;;;;;;;-6.84;73.10;97346.65;106579;1275;22934;-63
2023/02/07 07:38:38;;;;;;;18.70;8.60;;;;;;;-6.73;72.76;97353.53;106467;1275;22558;-64
2023/02/07 07:41:07;;;;;;;21.30;10.20;;;;;;;-6.58;72.37;97349.11;106513;1275;24332;-64
2023/02/07 07:43:35;;;;;;;18.60;9.20;;;;;;;-6.46;71.72;97351.44;106420;1275;25677;-66
2023/02/07 07:46:03;;;;;;;17.20;8.60;;;;;;;-6.37;70.94;97358.76;106460;1275;22534;-64
2023/02/07 07:48:32;;;;;;;14.80;7.70;;;;;;;-6.34;70.43;97359.33;106582;1275;22520;-64
2023/02/07 07:51:00;;;;;;;15.70;8.30;;;;;;;-6.26;70.15;97360.92;106514;1275;22534;-65
2023/02/07 07:53:28;;;;;;;16.30;8.40;;;;;;;-6.18;69.56;97362.24;106512;1275;24234;-64
2023/02/07 07:55:56;;;;;;;19.40;9.30;;;;;;;-6.05;69.12;97373.06;106573;1275;22525;-64
2023/02/07 07:58:25;;;;;;;15.30;9.20;;;;;;;-5.90;69.06;97369.24;106491;1275;22528;-64
2023/02/07 08:00:54;;;;;;;16.90;8.80;;;;;;;-5.79;67.90;97374.63;106631;1275;23885;-63
2023/02/07 08:03:22;;;;;;;15.40;8.20;;;;;;;-5.68;67.09;97369.44;106589;1275;22531;-65
2023/02/07 08:05:51;;;;;;;13.10;6.30;;;;;;;-5.55;66.44;97366.93;106682;1275;22534;-69
2023/02/07 08:08:19;;;;;;;20.00;9.80;;;;;;;-5.41;66.23;97366.05;106587;1275;24213;-63
2023/02/07 08:10:48;;;;;;;14.30;8.80;;;;;;;-5.18;65.96;97359.40;106582;1275;26628;-65
2023/02/07 08:13:17;;;;;;;16.30;9.40;;;;;;;-4.99;64.80;97350.80;106628;1275;22520;-63
2023/02/07 08:15:45;;;;;;;17.60;9.00;;;;;;;-4.84;63.78;97342.73;106669;1275;22616;-65
2023/02/07 08:18:13;;;;;;;13.70;7.50;;;;;;;-4.65;63.32;97339.54;106621;1275;25455;-63
2023/02/07 08:20:42;;;;;;;13.90;7.40;;;;;;;-4.46;61.94;97338.91;106527;1275;25561;-63
2023/02/07 08:23:10;;;;;;;18.60;10.00;;;;;;;-4.27;61.63;97337.44;106585;1270;22574;-63
2023/02/07 08:25:40;;;;;;;11.70;6.90;;;;;;;-4.12;61.30;97338.27;106643;1275;25278;-67
2023/02/07 08:28:09;;;;;;;14.90;8.30;;;;;;;-4.16;60.39;97342.14;106537;1275;22527;-65
2023/02/07 08:30:38;;;;;;;17.60;8.70;;;;;;;-4.06;60.44;97330.60;106586;1273;24409;-67
2023/02/07 08:33:07;;;;;;;20.10;9.40;;;;;;;-3.92;60.62;97326.34;108138;1275;22531;-66
2023/02/07 08:35:35;;;;;;;19.10;10.00;;;;;;;-3.76;59.71;97320.95;106771;1275;25429;-64
2023/02/07 08:38:03;;;;;;;312.60;131.00;;;;;;;-3.54;59.66;97313.09;106515;1275;25385;-62
2023/02/07 08:40:32;;;;;;;87.00;40.40;;;;;;;-3.37;59.21;97307.80;106480;1275;22526;-65
2023/02/07 08:43:00;;;;;;;78.20;37.00;;;;;;;-3.24;59.09;97303.44;106655;1275;22526;-63
2023/02/07 08:45:28;;;;;;;22.50;12.60;;;;;;;-3.13;57.97;97298.41;106308;1275;24495;-68
2023/02/07 08:47:56;;;;;;;214.90;78.80;;;;;;;-2.97;57.40;97297.98;106287;1269;25447;-65
2023/02/07 08:50:24;;;;;;;16.40;9.20;;;;;;;-2.83;57.23;97298.69;106335;1275;22654;-65
2023/02/07 08:52:52;;;;;;;53.00;23.70;;;;;;;-2.72;56.08;97292.25;106419;1275;25223;-65
2023/02/07 08:55:21;;;;;;;47.10;21.90;;;;;;;-2.62;56.16;97291.86;106969;1275;26537;-65
2023/02/07 08:57:49;;;;;;;39.80;20.20;;;;;;;-2.48;56.34;97286.50;106324;1275;22642;-66
2023/02/07 09:00:17;;;;;;;47.10;23.60;;;;;;;-2.30;56.41;97278.55;106407;1275;24457;-66
2023/02/07 09:02:46;;;;;;;20.70;11.30;;;;;;;-2.18;55.95;97281.85;106490;1274;24926;-66
2023/02/07 09:05:14;;;;;;;21.90;10.60;;;;;;;-2.06;55.09;97281.46;107118;1269;22807;-73
2023/02/07 09:07:43;;;;;;;22.60;11.20;;;;;;;-2.03;54.12;97280.58;108341;1275;24128;-67
2023/02/07 09:10:11;;;;;;;18.10;10.20;;;;;;;-2.11;53.91;97284.32;106359;1268;22525;-69
2023/02/07 09:12:39;;;;;;;15.40;9.00;;;;;;;-2.35;52.79;97280.66;106449;1269;22539;-67
2023/02/07 09:15:08;;;;;;;13.00;7.40;;;;;;;-2.38;53.02;97281.68;106412;1269;25303;-66
2023/02/07 09:17:36;;;;;;;11.00;6.80;;;;;;;-2.30;51.91;97280.13;107854;1275;24201;-67
2023/02/07 09:20:05;;;;;;;10.20;6.80;;;;;;;-2.16;50.93;97279.37;106329;1275;25288;-68
2023/02/07 09:23:16;;;;;;;12.50;6.40;;;;;;;-2.13;50.32;97279.36;106817;1272;24915;-66
2023/02/07 09:25:22;;;;;;;12.80;7.60;;;;;;;-2.26;50.02;97281.38;106458;1268;22535;-67
2023/02/07 09:27:51;;;;;;;11.80;7.00;;;;;;;-2.37;50.69;97279.88;106718;1271;22653;-66
2023/02/07 09:30:19;;;;;;;10.80;6.70;;;;;;;-2.36;50.67;97279.41;106485;1272;22529;-65
2023/02/07 09:32:47;;;;;;;10.90;6.20;;;;;;;-2.37;50.44;97277.48;106391;1271;22645;-66
2023/02/07 09:35:15;;;;;;;13.10;7.20;;;;;;;-2.23;51.02;97272.41;106408;1270;24455;-66
2023/02/07 09:37:43;;;;;;;10.50;6.10;;;;;;;-2.03;50.91;97271.65;106504;1272;22525;-66
2023/02/07 09:40:18;;;;;;;12.10;7.30;;;;;;;-1.86;49.83;97270.18;106467;1276;24298;-68
2023/02/07 09:43:02;;;;;;;12.40;7.10;;;;;;;-1.73;49.70;97265.56;106481;1275;22791;-67
2023/02/07 09:45:37;;;;;;;14.00;7.20;;;;;;;-1.59;49.64;97262.41;109219;1275;22656;-64
2023/02/07 09:48:23;;;;;;;9.70;5.80;;;;;;;-1.54;48.55;97260.05;106541;1275;22541;-66
2023/02/07 09:50:55;;;;;;;5.70;3.80;;;;;;;-1.65;47.61;97261.14;106576;1275;24251;-64
2023/02/07 09:53:56;;;;;;;7.40;4.40;;;;;;;-1.79;47.19;97258.14;106561;1275;25297;-69
2023/02/07 09:56:28;;;;;;;8.20;5.40;;;;;;;-1.76;47.64;97260.39;106537;1275;25410;-67
2023/02/07 09:58:59;;;;;;;10.30;5.80;;;;;;;-1.74;47.92;97258.77;106329;1275;22556;-67
2023/02/07 10:01:43;;;;;;;6.50;4.40;;;;;;;-1.70;47.45;97255.85;107371;1275;22539;-66
2023/02/07 10:04:17;;;;;;;9.30;5.60;;;;;;;-1.58;47.31;97260.02;106506;1275;24199;-66
2023/02/07 10:06:51;;;;;;;9.70;5.60;;;;;;;-1.46;47.36;97251.69;106450;1275;25237;-64
2023/02/07 10:09:41;;;;;;;9.50;4.70;;;;;;;-1.34;46.45;97248.38;106545;1275;25285;-63
2023/02/07 10:12:38;;;;;;;7.50;4.80;;;;;;;-1.23;46.00;97241.71;106607;1275;22533;-63
2023/02/07 10:15:35;;;;;;;7.10;4.30;;;;;;;-1.11;46.07;97238.73;106510;1274;22642;-64
2023/02/07 10:18:21;;;;;;;8.70;5.30;;;;;;;-0.91;46.55;97240.11;106767;1276;24878;-63
2023/02/07 10:21:02;;;;;;;12.70;7.20;;;;;;;-0.74;46.01;97236.12;106830;1276;24389;-63
2023/02/07 10:24:04;;;;;;;13.50;8.00;;;;;;;-0.68;45.47;97236.10;106749;1276;25367;-63
2023/02/07 10:26:39;;;;;;;8.90;5.00;;;;;;;-0.46;45.83;97232.20;106552;1276;22518;-64
2023/02/07 10:29:16;;;;;;;8.90;6.00;;;;;;;-0.20;43.97;97227.58;106665;1276;23879;-65
2023/02/07 10:31:52;;;;;;;7.80;5.90;;;;;;;0.03;43.99;97222.14;106462;1267;22537;-64
2023/02/07 10:34:30;;;;;;;9.80;5.50;;;;;;;0.48;43.85;97211.14;108437;1276;22577;-65
2023/02/07 10:37:01;;;;;;;11.50;6.70;;;;;;;0.99;43.55;97205.63;106447;1276;22524;-65
2023/02/07 10:39:38;;;;;;;23.10;10.40;;;;;;;1.52;41.86;97192.31;106690;1276;25228;-65
2023/02/07 10:42:14;;;;;;;11.80;7.30;;;;;;;1.96;41.68;97181.59;106513;1276;22608;-66
2023/02/07 10:44:42;;;;;;;12.60;7.90;;;;;;;2.35;41.05;97175.52;106575;1276;22527;-64
2023/02/07 10:47:18;;;;;;;10.70;7.40;;;;;;;2.84;40.60;97167.77;106714;1276;24251;-64
2023/02/07 10:49:49;;;;;;;12.60;8.30;;;;;;;3.09;40.02;97166.41;106604;1276;25335;-65
2023/02/07 10:52:38;;;;;;;9.60;6.80;;;;;;;3.22;39.29;97162.91;106563;1276;22529;-65
2023/02/07 10:55:09;;;;;;;12.20;7.70;;;;;;;3.39;39.19;97155.84;106570;1265;23898;-66
2023/02/07 10:57:37;;;;;;;10.40;6.70;;;;;;;3.50;38.19;97157.07;106559;1276;24498;-67
2023/02/07 11:00:28;;;;;;;12.30;8.90;;;;;;;3.66;38.76;97159.50;106557;1276;25723;-65
2023/02/07 11:03:05;;;;;;;12.50;8.40;;;;;;;4.08;38.58;97153.55;106580;1258;24231;-66
2023/02/07 11:05:40;;;;;;;16.70;8.90;;;;;;;4.05;37.57;97152.96;106581;1276;23889;-65
2023/02/07 11:08:14;;;;;;;12.60;9.00;;;;;;;3.87;38.18;97147.84;106571;1276;25354;-65
2023/02/07 11:10:44;;;;;;;11.40;8.00;;;;;;;4.16;37.71;97147.02;106520;1276;25281;-65
2023/02/07 11:13:15;;;;;;;11.40;8.40;;;;;;;4.04;37.32;97142.83;106557;1276;22546;-65
2023/02/07 11:16:02;;;;;;;17.20;10.10;;;;;;;4.35;37.59;97137.52;106485;1276;22646;-65
2023/02/07 11:18:52;;;;;;;16.00;11.00;;;;;;;4.52;36.58;97136.61;106530;1276;22656;-66
2023/02/07 11:21:32;;;;;;;14.50;9.00;;;;;;;4.38;36.54;97138.97;106538;1276;25445;-66
2023/02/07 11:24:18;;;;;;;16.30;11.60;;;;;;;4.59;36.14;97139.60;106547;1276;24379;-66
2023/02/07 11:26:52;;;;;;;14.10;9.50;;;;;;;4.69;36.30;97136.08;106619;1276;22657;-66
2023/02/07 11:29:23;;;;;;;13.10;8.80;;;;;;;4.64;35.95;97133.48;106542;1276;22546;-66
2023/02/07 11:31:54;;;;;;;14.40;9.70;;;;;;;4.91;36.22;97135.30;106554;1276;25332;-66
2023/02/07 11:34:43;;;;;;;10.90;8.70;;;;;;;5.20;35.49;97128.24;106585;1276;25167;-66
2023/02/07 11:37:29;;;;;;;13.60;9.20;;;;;;;5.14;35.26;97128.08;106584;1276;25450;-66